sensor_id;sensor_type;location;lat;lon;timestamp;P1;durP1;ratioP1;P2;durP2;ratioP2
75012;SDS011;63567;49.956;20.130;2023-05-23T00:02:00;6.53;;;4.63;;
75012;SDS011;63567;49.956;20.130;2023-05-23T00:04:25;8.40;;;5.35;;
75012;SDS011;63567;49.956;20.130;2023-05-23T00:06:51;7.50;;;5.20;;
75012;SDS011;63567;49.956;20.130;2023-05-23T00:09:17;7.72;;;5.15;;
75012;SDS011;63567;49.956;20.130;2023-05-23T00:11:43;8.30;;;4.78;;
75012;SDS011;63567;49.956;20.130;2023-05-23T00:14:11;7.20;;;4.95;;
75012;SDS011;63567;49.956;20.130;2023-05-23T00:16:38;9.05;;;5.40;;
75012;SDS011;63567;49.956;20.130;2023-05-23T00:19:05;7.18;;;4.90;;
75012;SDS011;63567;49.956;20.130;2023-05-23T00:21:30;6.75;;;5.10;;
75012;SDS011;63567;49.956;20.130;2023-05-23T00:23:56;7.38;;;5.07;;
75012;SDS011;63567;49.956;20.130;2023-05-23T00:26:22;7.20;;;4.53;;
75012;SDS011;63567;49.956;20.130;2023-05-23T00:28:48;7.15;;;5.00;;
75012;SDS011;63567;49.956;20.130;2023-05-23T00:31:13;5.87;;;5.00;;
75012;SDS011;63567;49.956;20.130;2023-05-23T00:33:38;6.93;;;4.80;;
75012;SDS011;63567;49.956;20.130;2023-05-23T00:36:03;5.87;;;5.07;;
75012;SDS011;63567;49.956;20.130;2023-05-23T00:38:29;7.60;;;5.15;;
75012;SDS011;63567;49.956;20.130;2023-05-23T00:40:55;7.28;;;4.90;;
75012;SDS011;63567;49.956;20.130;2023-05-23T00:43:20;7.73;;;5.40;;
75012;SDS011;63567;49.956;20.130;2023-05-23T00:45:47;7.30;;;4.82;;
75012;SDS011;63567;49.956;20.130;2023-05-23T00:48:12;5.90;;;4.60;;
75012;SDS011;63567;49.956;20.130;2023-05-23T00:50:38;7.13;;;4.80;;
75012;SDS011;63567;49.956;20.130;2023-05-23T00:53:04;7.70;;;5.15;;
75012;SDS011;63567;49.956;20.130;2023-05-23T00:55:30;6.30;;;4.57;;
75012;SDS011;63567;49.956;20.130;2023-05-23T00:57:56;7.00;;;4.70;;
75012;SDS011;63567;49.956;20.130;2023-05-23T01:00:22;6.82;;;5.15;;
75012;SDS011;63567;49.956;20.130;2023-05-23T01:02:48;7.57;;;4.75;;
75012;SDS011;63567;49.956;20.130;2023-05-23T01:05:17;7.05;;;4.95;;
75012;SDS011;63567;49.956;20.130;2023-05-23T01:07:44;7.32;;;4.95;;
75012;SDS011;63567;49.956;20.130;2023-05-23T01:10:11;6.25;;;4.90;;
75012;SDS011;63567;49.956;20.130;2023-05-23T01:12:40;6.78;;;4.63;;
75012;SDS011;63567;49.956;20.130;2023-05-23T01:15:13;6.43;;;4.38;;
75012;SDS011;63567;49.956;20.130;2023-05-23T01:17:58;6.43;;;5.00;;
75012;SDS011;63567;49.956;20.130;2023-05-23T01:23:12;8.70;;;4.63;;
75012;SDS011;63567;49.956;20.130;2023-05-23T01:28:42;6.28;;;4.35;;
75012;SDS011;63567;49.956;20.130;2023-05-23T01:31:10;5.85;;;4.45;;
75012;SDS011;63567;49.956;20.130;2023-05-23T01:33:37;7.10;;;4.65;;
75012;SDS011;63567;49.956;20.130;2023-05-23T01:36:04;6.63;;;4.68;;
75012;SDS011;63567;49.956;20.130;2023-05-23T01:38:30;5.85;;;4.32;;
75012;SDS011;63567;49.956;20.130;2023-05-23T01:40:55;6.45;;;4.82;;
75012;SDS011;63567;49.956;20.130;2023-05-23T01:43:21;5.75;;;4.07;;
75012;SDS011;63567;49.956;20.130;2023-05-23T01:45:47;6.75;;;4.78;;
75012;SDS011;63567;49.956;20.130;2023-05-23T01:48:13;5.53;;;4.00;;
75012;SDS011;63567;49.956;20.130;2023-05-23T01:50:39;6.60;;;4.15;;
75012;SDS011;63567;49.956;20.130;2023-05-23T01:55:35;5.47;;;3.70;;
75012;SDS011;63567;49.956;20.130;2023-05-23T01:58:01;9.25;;;4.75;;
75012;SDS011;63567;49.956;20.130;2023-05-23T02:00:27;7.80;;;5.10;;
75012;SDS011;63567;49.956;20.130;2023-05-23T02:02:52;6.37;;;3.87;;
75012;SDS011;63567;49.956;20.130;2023-05-23T02:05:17;7.20;;;4.40;;
75012;SDS011;63567;49.956;20.130;2023-05-23T02:07:43;6.43;;;5.00;;
75012;SDS011;63567;49.956;20.130;2023-05-23T02:10:08;8.23;;;4.23;;
75012;SDS011;63567;49.956;20.130;2023-05-23T02:12:34;6.72;;;4.25;;
75012;SDS011;63567;49.956;20.130;2023-05-23T02:15:00;5.03;;;3.97;;
75012;SDS011;63567;49.956;20.130;2023-05-23T02:17:25;7.80;;;4.60;;
75012;SDS011;63567;49.956;20.130;2023-05-23T02:19:50;5.77;;;4.20;;
75012;SDS011;63567;49.956;20.130;2023-05-23T02:22:15;5.73;;;4.23;;
75012;SDS011;63567;49.956;20.130;2023-05-23T02:24:41;5.43;;;4.10;;
75012;SDS011;63567;49.956;20.130;2023-05-23T02:27:06;7.10;;;4.33;;
75012;SDS011;63567;49.956;20.130;2023-05-23T02:29:31;8.20;;;4.63;;
75012;SDS011;63567;49.956;20.130;2023-05-23T02:31:56;8.07;;;4.50;;
75012;SDS011;63567;49.956;20.130;2023-05-23T02:34:22;6.50;;;3.97;;
75012;SDS011;63567;49.956;20.130;2023-05-23T02:36:47;5.70;;;4.30;;
75012;SDS011;63567;49.956;20.130;2023-05-23T02:39:12;6.57;;;4.13;;
75012;SDS011;63567;49.956;20.130;2023-05-23T02:41:38;6.45;;;4.55;;
75012;SDS011;63567;49.956;20.130;2023-05-23T02:44:04;6.70;;;4.17;;
75012;SDS011;63567;49.956;20.130;2023-05-23T02:46:29;5.47;;;4.00;;
75012;SDS011;63567;49.956;20.130;2023-05-23T02:48:54;5.55;;;4.45;;
75012;SDS011;63567;49.956;20.130;2023-05-23T02:51:20;7.78;;;4.05;;
75012;SDS011;63567;49.956;20.130;2023-05-23T02:53:45;6.03;;;4.00;;
75012;SDS011;63567;49.956;20.130;2023-05-23T02:56:10;7.43;;;4.07;;
75012;SDS011;63567;49.956;20.130;2023-05-23T02:58:37;5.68;;;4.25;;
75012;SDS011;63567;49.956;20.130;2023-05-23T03:01:03;5.78;;;3.83;;
75012;SDS011;63567;49.956;20.130;2023-05-23T03:03:29;5.68;;;4.07;;
75012;SDS011;63567;49.956;20.130;2023-05-23T03:05:55;5.32;;;3.65;;
75012;SDS011;63567;49.956;20.130;2023-05-23T03:08:21;6.10;;;4.00;;
75012;SDS011;63567;49.956;20.130;2023-05-23T03:10:47;6.32;;;3.90;;
75012;SDS011;63567;49.956;20.130;2023-05-23T03:13:12;5.97;;;3.80;;
75012;SDS011;63567;49.956;20.130;2023-05-23T03:15:37;6.53;;;4.30;;
75012;SDS011;63567;49.956;20.130;2023-05-23T03:18:03;6.33;;;4.13;;
75012;SDS011;63567;49.956;20.130;2023-05-23T03:20:28;6.87;;;3.73;;
75012;SDS011;63567;49.956;20.130;2023-05-23T03:22:53;5.37;;;3.93;;
75012;SDS011;63567;49.956;20.130;2023-05-23T03:25:18;5.63;;;4.00;;
75012;SDS011;63567;49.956;20.130;2023-05-23T03:27:44;5.50;;;4.17;;
75012;SDS011;63567;49.956;20.130;2023-05-23T03:30:09;6.50;;;4.53;;
75012;SDS011;63567;49.956;20.130;2023-05-23T03:32:35;5.32;;;3.80;;
75012;SDS011;63567;49.956;20.130;2023-05-23T03:35:00;6.60;;;4.20;;
75012;SDS011;63567;49.956;20.130;2023-05-23T03:37:25;5.93;;;3.87;;
75012;SDS011;63567;49.956;20.130;2023-05-23T03:39:51;6.37;;;4.50;;
75012;SDS011;63567;49.956;20.130;2023-05-23T03:42:16;4.87;;;3.80;;
75012;SDS011;63567;49.956;20.130;2023-05-23T03:44:42;5.95;;;4.18;;
75012;SDS011;63567;49.956;20.130;2023-05-23T03:47:07;4.78;;;3.83;;
75012;SDS011;63567;49.956;20.130;2023-05-23T03:49:32;5.47;;;3.73;;
75012;SDS011;63567;49.956;20.130;2023-05-23T03:51:57;6.17;;;4.40;;
75012;SDS011;63567;49.956;20.130;2023-05-23T03:54:23;6.93;;;4.70;;
75012;SDS011;63567;49.956;20.130;2023-05-23T03:56:48;6.67;;;4.87;;
75012;SDS011;63567;49.956;20.130;2023-05-23T03:59:13;8.47;;;5.10;;
75012;SDS011;63567;49.956;20.130;2023-05-23T04:01:38;7.60;;;5.63;;
75012;SDS011;63567;49.956;20.130;2023-05-23T04:04:04;8.88;;;5.38;;
75012;SDS011;63567;49.956;20.130;2023-05-23T04:06:29;9.40;;;5.60;;
75012;SDS011;63567;49.956;20.130;2023-05-23T04:08:55;7.00;;;5.50;;
75012;SDS011;63567;49.956;20.130;2023-05-23T04:11:21;8.77;;;5.25;;
75012;SDS011;63567;49.956;20.130;2023-05-23T04:13:46;7.97;;;5.72;;
75012;SDS011;63567;49.956;20.130;2023-05-23T04:16:11;8.77;;;5.90;;
75012;SDS011;63567;49.956;20.130;2023-05-23T04:18:37;8.15;;;5.22;;
75012;SDS011;63567;49.956;20.130;2023-05-23T04:21:03;9.73;;;6.22;;
75012;SDS011;63567;49.956;20.130;2023-05-23T04:23:28;7.28;;;4.93;;
75012;SDS011;63567;49.956;20.130;2023-05-23T04:25:53;9.00;;;5.30;;
75012;SDS011;63567;49.956;20.130;2023-05-23T04:28:19;7.47;;;5.38;;
75012;SDS011;63567;49.956;20.130;2023-05-23T04:30:44;8.00;;;5.03;;
75012;SDS011;63567;49.956;20.130;2023-05-23T04:33:09;7.63;;;5.10;;
75012;SDS011;63567;49.956;20.130;2023-05-23T04:35:35;8.05;;;4.78;;
75012;SDS011;63567;49.956;20.130;2023-05-23T04:38:02;7.60;;;5.05;;
75012;SDS011;63567;49.956;20.130;2023-05-23T04:40:28;5.85;;;4.70;;
75012;SDS011;63567;49.956;20.130;2023-05-23T04:42:54;6.38;;;5.07;;
75012;SDS011;63567;49.956;20.130;2023-05-23T04:45:20;6.28;;;4.85;;
75012;SDS011;63567;49.956;20.130;2023-05-23T04:47:45;7.60;;;4.77;;
75012;SDS011;63567;49.956;20.130;2023-05-23T04:50:11;6.93;;;4.68;;
75012;SDS011;63567;49.956;20.130;2023-05-23T04:52:38;7.82;;;4.80;;
75012;SDS011;63567;49.956;20.130;2023-05-23T04:55:04;7.60;;;4.88;;
75012;SDS011;63567;49.956;20.130;2023-05-23T04:57:30;7.22;;;4.60;;
75012;SDS011;63567;49.956;20.130;2023-05-23T04:59:56;5.50;;;4.40;;
75012;SDS011;63567;49.956;20.130;2023-05-23T05:02:21;6.65;;;4.65;;
75012;SDS011;63567;49.956;20.130;2023-05-23T05:04:46;8.07;;;4.30;;
75012;SDS011;63567;49.956;20.130;2023-05-23T05:07:12;7.53;;;5.03;;
75012;SDS011;63567;49.956;20.130;2023-05-23T05:09:37;8.27;;;4.83;;
75012;SDS011;63567;49.956;20.130;2023-05-23T05:12:02;7.70;;;5.07;;
75012;SDS011;63567;49.956;20.130;2023-05-23T05:14:27;6.27;;;4.63;;
75012;SDS011;63567;49.956;20.130;2023-05-23T05:16:53;7.23;;;5.03;;
75012;SDS011;63567;49.956;20.130;2023-05-23T05:19:21;7.55;;;4.70;;
75012;SDS011;63567;49.956;20.130;2023-05-23T05:21:50;7.68;;;5.22;;
75012;SDS011;63567;49.956;20.130;2023-05-23T05:24:15;6.80;;;5.10;;
75012;SDS011;63567;49.956;20.130;2023-05-23T05:26:40;8.23;;;6.43;;
75012;SDS011;63567;49.956;20.130;2023-05-23T05:29:06;7.38;;;5.47;;
75012;SDS011;63567;49.956;20.130;2023-05-23T05:31:31;7.43;;;5.07;;
75012;SDS011;63567;49.956;20.130;2023-05-23T05:33:57;7.75;;;5.30;;
75012;SDS011;63567;49.956;20.130;2023-05-23T05:36:22;7.53;;;5.60;;
75012;SDS011;63567;49.956;20.130;2023-05-23T05:38:48;7.40;;;5.20;;
75012;SDS011;63567;49.956;20.130;2023-05-23T05:41:13;8.53;;;5.70;;
75012;SDS011;63567;49.956;20.130;2023-05-23T05:43:38;9.27;;;6.53;;
75012;SDS011;63567;49.956;20.130;2023-05-23T05:46:04;9.83;;;7.13;;
75012;SDS011;63567;49.956;20.130;2023-05-23T05:48:29;11.13;;;7.20;;
75012;SDS011;63567;49.956;20.130;2023-05-23T05:50:54;10.67;;;7.43;;
75012;SDS011;63567;49.956;20.130;2023-05-23T05:53:20;9.57;;;7.67;;
75012;SDS011;63567;49.956;20.130;2023-05-23T05:55:45;9.93;;;7.57;;
75012;SDS011;63567;49.956;20.130;2023-05-23T05:58:10;11.07;;;7.93;;
75012;SDS011;63567;49.956;20.130;2023-05-23T06:00:36;10.40;;;8.20;;
75012;SDS011;63567;49.956;20.130;2023-05-23T06:03:06;11.77;;;8.20;;
75012;SDS011;63567;49.956;20.130;2023-05-23T06:05:32;10.82;;;8.32;;
75012;SDS011;63567;49.956;20.130;2023-05-23T06:07:58;11.83;;;8.20;;
75012;SDS011;63567;49.956;20.130;2023-05-23T06:10:23;11.53;;;8.70;;
75012;SDS011;63567;49.956;20.130;2023-05-23T06:12:51;9.60;;;8.00;;
75012;SDS011;63567;49.956;20.130;2023-05-23T06:15:16;10.57;;;7.93;;
75012;SDS011;63567;49.956;20.130;2023-05-23T06:17:41;12.67;;;9.87;;
75012;SDS011;63567;49.956;20.130;2023-05-23T06:20:09;12.15;;;9.35;;
75012;SDS011;63567;49.956;20.130;2023-05-23T06:22:35;11.10;;;8.73;;
75012;SDS011;63567;49.956;20.130;2023-05-23T06:25:00;11.77;;;9.40;;
75012;SDS011;63567;49.956;20.130;2023-05-23T06:27:26;11.27;;;8.88;;
75012;SDS011;63567;49.956;20.130;2023-05-23T06:29:51;12.93;;;9.50;;
75012;SDS011;63567;49.956;20.130;2023-05-23T06:32:17;11.38;;;8.48;;
75012;SDS011;63567;49.956;20.130;2023-05-23T06:34:42;13.27;;;9.10;;
75012;SDS011;63567;49.956;20.130;2023-05-23T06:37:07;14.53;;;9.77;;
75012;SDS011;63567;49.956;20.130;2023-05-23T06:39:32;12.63;;;9.97;;
75012;SDS011;63567;49.956;20.130;2023-05-23T06:41:58;12.60;;;8.43;;
75012;SDS011;63567;49.956;20.130;2023-05-23T06:44:23;11.83;;;8.60;;
75012;SDS011;63567;49.956;20.130;2023-05-23T06:46:48;12.37;;;10.03;;
75012;SDS011;63567;49.956;20.130;2023-05-23T06:49:13;13.10;;;9.43;;
75012;SDS011;63567;49.956;20.130;2023-05-23T06:51:39;12.27;;;8.75;;
75012;SDS011;63567;49.956;20.130;2023-05-23T06:54:04;12.05;;;9.38;;
75012;SDS011;63567;49.956;20.130;2023-05-23T06:56:30;13.77;;;9.07;;
75012;SDS011;63567;49.956;20.130;2023-05-23T06:58:55;13.65;;;9.02;;
75012;SDS011;63567;49.956;20.130;2023-05-23T07:01:21;12.27;;;8.93;;
75012;SDS011;63567;49.956;20.130;2023-05-23T07:03:46;12.77;;;9.35;;
75012;SDS011;63567;49.956;20.130;2023-05-23T07:06:11;13.57;;;8.73;;
75012;SDS011;63567;49.956;20.130;2023-05-23T07:08:37;12.23;;;8.85;;
75012;SDS011;63567;49.956;20.130;2023-05-23T07:11:03;11.60;;;8.50;;
75012;SDS011;63567;49.956;20.130;2023-05-23T07:13:28;14.23;;;9.40;;
75012;SDS011;63567;49.956;20.130;2023-05-23T07:15:54;13.37;;;8.57;;
75012;SDS011;63567;49.956;20.130;2023-05-23T07:18:19;12.45;;;8.35;;
75012;SDS011;63567;49.956;20.130;2023-05-23T07:20:45;12.53;;;9.00;;
75012;SDS011;63567;49.956;20.130;2023-05-23T07:23:10;13.40;;;8.90;;
75012;SDS011;63567;49.956;20.130;2023-05-23T07:25:35;11.75;;;8.95;;
75012;SDS011;63567;49.956;20.130;2023-05-23T07:28:01;13.23;;;9.17;;
75012;SDS011;63567;49.956;20.130;2023-05-23T07:30:26;11.70;;;8.97;;
75012;SDS011;63567;49.956;20.130;2023-05-23T07:32:51;12.53;;;9.37;;
75012;SDS011;63567;49.956;20.130;2023-05-23T07:35:17;12.83;;;8.47;;
75012;SDS011;63567;49.956;20.130;2023-05-23T07:37:42;12.35;;;8.82;;
75012;SDS011;63567;49.956;20.130;2023-05-23T07:40:07;11.10;;;8.90;;
75012;SDS011;63567;49.956;20.130;2023-05-23T07:42:33;10.07;;;9.07;;
75012;SDS011;63567;49.956;20.130;2023-05-23T07:44:59;9.32;;;8.00;;
75012;SDS011;63567;49.956;20.130;2023-05-23T07:47:24;10.30;;;8.50;;
75012;SDS011;63567;49.956;20.130;2023-05-23T07:49:50;11.57;;;8.67;;
75012;SDS011;63567;49.956;20.130;2023-05-23T07:52:16;9.02;;;7.30;;
75012;SDS011;63567;49.956;20.130;2023-05-23T07:54:41;11.10;;;7.88;;
75012;SDS011;63567;49.956;20.130;2023-05-23T07:57:07;12.50;;;8.30;;
75012;SDS011;63567;49.956;20.130;2023-05-23T07:59:33;10.95;;;7.38;;
75012;SDS011;63567;49.956;20.130;2023-05-23T08:01:58;12.53;;;8.87;;
75012;SDS011;63567;49.956;20.130;2023-05-23T08:04:24;10.80;;;8.20;;
75012;SDS011;63567;49.956;20.130;2023-05-23T08:06:49;11.00;;;8.53;;
75012;SDS011;63567;49.956;20.130;2023-05-23T08:09:14;9.77;;;7.73;;
75012;SDS011;63567;49.956;20.130;2023-05-23T08:11:40;10.27;;;8.55;;
75012;SDS011;63567;49.956;20.130;2023-05-23T08:14:05;10.37;;;7.90;;
75012;SDS011;63567;49.956;20.130;2023-05-23T08:16:30;9.23;;;7.67;;
75012;SDS011;63567;49.956;20.130;2023-05-23T08:18:55;11.13;;;7.73;;
75012;SDS011;63567;49.956;20.130;2023-05-23T08:21:21;10.03;;;7.90;;
75012;SDS011;63567;49.956;20.130;2023-05-23T08:23:47;9.07;;;7.82;;
75012;SDS011;63567;49.956;20.130;2023-05-23T08:26:12;10.73;;;7.40;;
75012;SDS011;63567;49.956;20.130;2023-05-23T08:28:38;7.97;;;7.00;;
75012;SDS011;63567;49.956;20.130;2023-05-23T08:31:03;9.43;;;6.90;;
75012;SDS011;63567;49.956;20.130;2023-05-23T08:33:28;9.97;;;6.87;;
75012;SDS011;63567;49.956;20.130;2023-05-23T08:35:53;10.20;;;7.87;;
75012;SDS011;63567;49.956;20.130;2023-05-23T08:38:19;8.53;;;7.10;;
75012;SDS011;63567;49.956;20.130;2023-05-23T08:40:48;8.20;;;7.30;;
75012;SDS011;63567;49.956;20.130;2023-05-23T08:43:16;10.55;;;7.57;;
75012;SDS011;63567;49.956;20.130;2023-05-23T08:45:41;8.48;;;7.30;;
75012;SDS011;63567;49.956;20.130;2023-05-23T08:48:07;9.07;;;6.95;;
75012;SDS011;63567;49.956;20.130;2023-05-23T08:50:37;8.93;;;7.47;;
75012;SDS011;63567;49.956;20.130;2023-05-23T08:53:04;8.20;;;7.10;;
75012;SDS011;63567;49.956;20.130;2023-05-23T08:55:34;8.10;;;6.40;;
75012;SDS011;63567;49.956;20.130;2023-05-23T08:58:00;8.68;;;6.43;;
75012;SDS011;63567;49.956;20.130;2023-05-23T09:00:25;7.50;;;6.70;;
75012;SDS011;63567;49.956;20.130;2023-05-23T09:02:51;9.10;;;7.18;;
75012;SDS011;63567;49.956;20.130;2023-05-23T09:05:18;9.80;;;7.60;;
75012;SDS011;63567;49.956;20.130;2023-05-23T09:07:44;9.05;;;6.63;;
75012;SDS011;63567;49.956;20.130;2023-05-23T09:12:40;8.55;;;6.43;;
75012;SDS011;63567;49.956;20.130;2023-05-23T09:15:07;7.93;;;7.13;;
75012;SDS011;63567;49.956;20.130;2023-05-23T09:17:34;8.32;;;6.53;;
75012;SDS011;63567;49.956;20.130;2023-05-23T09:20:00;9.27;;;7.18;;
75012;SDS011;63567;49.956;20.130;2023-05-23T09:22:26;7.35;;;6.55;;
75012;SDS011;63567;49.956;20.130;2023-05-23T09:24:55;8.40;;;7.47;;
75012;SDS011;63567;49.956;20.130;2023-05-23T09:27:21;8.80;;;6.57;;
75012;SDS011;63567;49.956;20.130;2023-05-23T09:29:47;7.85;;;6.95;;
75012;SDS011;63567;49.956;20.130;2023-05-23T09:32:13;7.95;;;6.50;;
75012;SDS011;63567;49.956;20.130;2023-05-23T09:35:01;7.85;;;6.68;;
75012;SDS011;63567;49.956;20.130;2023-05-23T09:40:07;8.13;;;6.38;;
75012;SDS011;63567;49.956;20.130;2023-05-23T09:42:46;7.90;;;6.75;;
75012;SDS011;63567;49.956;20.130;2023-05-23T09:45:12;8.30;;;6.70;;
75012;SDS011;63567;49.956;20.130;2023-05-23T09:47:38;8.50;;;7.70;;
75012;SDS011;63567;49.956;20.130;2023-05-23T09:50:12;7.32;;;6.43;;
75012;SDS011;63567;49.956;20.130;2023-05-23T09:52:38;9.02;;;6.28;;
75012;SDS011;63567;49.956;20.130;2023-05-23T09:55:03;8.87;;;7.10;;
75012;SDS011;63567;49.956;20.130;2023-05-23T09:57:30;6.85;;;6.15;;
75012;SDS011;63567;49.956;20.130;2023-05-23T09:59:59;7.35;;;6.55;;
75012;SDS011;63567;49.956;20.130;2023-05-23T10:03:13;9.40;;;8.60;;
75012;SDS011;63567;49.956;20.130;2023-05-23T10:05:34;8.35;;;7.45;;
75012;SDS011;63567;49.956;20.130;2023-05-23T10:08:04;7.03;;;6.35;;
75012;SDS011;63567;49.956;20.130;2023-05-23T10:10:34;6.63;;;6.03;;
75012;SDS011;63567;49.956;20.130;2023-05-23T10:13:32;7.68;;;6.90;;
75012;SDS011;63567;49.956;20.130;2023-05-23T10:16:00;6.97;;;6.28;;
75012;SDS011;63567;49.956;20.130;2023-05-23T10:18:44;6.57;;;5.82;;
75012;SDS011;63567;49.956;20.130;2023-05-23T10:21:17;6.97;;;6.38;;
75012;SDS011;63567;49.956;20.130;2023-05-23T10:23:48;8.05;;;7.13;;
75012;SDS011;63567;49.956;20.130;2023-05-23T10:26:14;7.72;;;5.93;;
75012;SDS011;63567;49.956;20.130;2023-05-23T10:28:40;7.13;;;6.40;;
75012;SDS011;63567;49.956;20.130;2023-05-23T10:31:06;6.80;;;6.10;;
75012;SDS011;63567;49.956;20.130;2023-05-23T10:33:32;7.00;;;6.32;;
75012;SDS011;63567;49.956;20.130;2023-05-23T10:36:03;5.95;;;5.45;;
75012;SDS011;63567;49.956;20.130;2023-05-23T10:38:38;6.18;;;5.57;;
75012;SDS011;63567;49.956;20.130;2023-05-23T10:43:56;5.50;;;5.00;;
75012;SDS011;63567;49.956;20.130;2023-05-23T10:46:51;6.28;;;5.70;;
75012;SDS011;63567;49.956;20.130;2023-05-23T10:49:19;6.07;;;5.57;;
75012;SDS011;63567;49.956;20.130;2023-05-23T10:51:48;6.35;;;5.75;;
75012;SDS011;63567;49.956;20.130;2023-05-23T10:54:15;5.82;;;5.30;;
75012;SDS011;63567;49.956;20.130;2023-05-23T10:56:43;6.90;;;6.20;;
75012;SDS011;63567;49.956;20.130;2023-05-23T10:59:08;6.27;;;5.77;;
75012;SDS011;63567;49.956;20.130;2023-05-23T11:01:44;6.80;;;6.20;;
75012;SDS011;63567;49.956;20.130;2023-05-23T11:04:09;6.83;;;6.33;;
75012;SDS011;63567;49.956;20.130;2023-05-23T11:06:39;6.75;;;6.05;;
75012;SDS011;63567;49.956;20.130;2023-05-23T11:09:10;6.22;;;5.63;;
75012;SDS011;63567;49.956;20.130;2023-05-23T11:14:32;6.25;;;5.75;;
75012;SDS011;63567;49.956;20.130;2023-05-23T11:16:58;6.18;;;5.68;;
75012;SDS011;63567;49.956;20.130;2023-05-23T11:19:25;6.32;;;5.78;;
75012;SDS011;63567;49.956;20.130;2023-05-23T11:22:01;7.85;;;7.25;;
75012;SDS011;63567;49.956;20.130;2023-05-23T11:27:12;6.97;;;6.47;;
75012;SDS011;63567;49.956;20.130;2023-05-23T11:29:37;7.00;;;6.40;;
75012;SDS011;63567;49.956;20.130;2023-05-23T11:32:09;7.68;;;7.00;;
75012;SDS011;63567;49.956;20.130;2023-05-23T11:34:38;7.28;;;6.68;;
75012;SDS011;63567;49.956;20.130;2023-05-23T11:37:04;8.55;;;7.00;;
75012;SDS011;63567;49.956;20.130;2023-05-23T11:39:30;8.10;;;7.45;;
75012;SDS011;63567;49.956;20.130;2023-05-23T11:41:59;8.50;;;7.70;;
75012;SDS011;63567;49.956;20.130;2023-05-23T11:44:24;8.52;;;7.82;;
75012;SDS011;63567;49.956;20.130;2023-05-23T11:47:02;9.15;;;8.45;;
75012;SDS011;63567;49.956;20.130;2023-05-23T11:49:31;8.30;;;7.80;;
75012;SDS011;63567;49.956;20.130;2023-05-23T11:52:00;10.15;;;9.48;;
75012;SDS011;63567;49.956;20.130;2023-05-23T11:54:26;14.93;;;14.13;;
75012;SDS011;63567;49.956;20.130;2023-05-23T11:56:53;14.18;;;13.32;;
75012;SDS011;63567;49.956;20.130;2023-05-23T11:59:19;11.40;;;10.43;;
75012;SDS011;63567;49.956;20.130;2023-05-23T12:01:45;10.38;;;9.75;;
75012;SDS011;63567;49.956;20.130;2023-05-23T12:04:11;11.70;;;10.80;;
75012;SDS011;63567;49.956;20.130;2023-05-23T12:06:37;9.73;;;9.13;;
75012;SDS011;63567;49.956;20.130;2023-05-23T12:09:04;10.35;;;9.65;;
75012;SDS011;63567;49.956;20.130;2023-05-23T12:11:30;11.75;;;10.80;;
75012;SDS011;63567;49.956;20.130;2023-05-23T12:13:56;10.80;;;10.10;;
75012;SDS011;63567;49.956;20.130;2023-05-23T12:16:21;11.73;;;10.77;;
75012;SDS011;63567;49.956;20.130;2023-05-23T12:18:47;10.70;;;9.90;;
75012;SDS011;63567;49.956;20.130;2023-05-23T12:21:12;12.32;;;11.60;;
75012;SDS011;63567;49.956;20.130;2023-05-23T12:23:38;16.90;;;16.00;;
75012;SDS011;63567;49.956;20.130;2023-05-23T12:26:04;9.95;;;9.27;;
75012;SDS011;63567;49.956;20.130;2023-05-23T12:28:40;11.65;;;10.88;;
75012;SDS011;63567;49.956;20.130;2023-05-23T12:31:10;14.48;;;13.52;;
75012;SDS011;63567;49.956;20.130;2023-05-23T12:33:37;13.98;;;12.98;;
75012;SDS011;63567;49.956;20.130;2023-05-23T12:36:07;11.50;;;10.70;;
75012;SDS011;63567;49.956;20.130;2023-05-23T12:38:33;12.38;;;11.48;;
75012;SDS011;63567;49.956;20.130;2023-05-23T12:41:11;12.90;;;12.10;;
75012;SDS011;63567;49.956;20.130;2023-05-23T12:43:40;13.95;;;13.15;;
75012;SDS011;63567;49.956;20.130;2023-05-23T12:46:13;11.30;;;10.60;;
75012;SDS011;63567;49.956;20.130;2023-05-23T12:48:39;12.15;;;11.32;;
75012;SDS011;63567;49.956;20.130;2023-05-23T12:51:05;10.13;;;9.40;;
75012;SDS011;63567;49.956;20.130;2023-05-23T12:53:30;11.20;;;10.40;;
75012;SDS011;63567;49.956;20.130;2023-05-23T12:55:55;13.70;;;12.73;;
75012;SDS011;63567;49.956;20.130;2023-05-23T12:58:20;12.73;;;11.93;;
75012;SDS011;63567;49.956;20.130;2023-05-23T13:00:46;14.43;;;13.60;;
75012;SDS011;63567;49.956;20.130;2023-05-23T13:03:11;15.43;;;14.63;;
75012;SDS011;63567;49.956;20.130;2023-05-23T13:05:37;18.67;;;17.83;;
75012;SDS011;63567;49.956;20.130;2023-05-23T13:08:02;23.27;;;22.25;;
75012;SDS011;63567;49.956;20.130;2023-05-23T13:10:28;13.90;;;13.07;;
75012;SDS011;63567;49.956;20.130;2023-05-23T13:12:53;14.13;;;13.23;;
75012;SDS011;63567;49.956;20.130;2023-05-23T13:15:18;13.90;;;13.07;;
75012;SDS011;63567;49.956;20.130;2023-05-23T13:17:44;13.23;;;12.33;;
75012;SDS011;63567;49.956;20.130;2023-05-23T13:20:10;14.65;;;13.95;;
75012;SDS011;63567;49.956;20.130;2023-05-23T13:22:37;19.30;;;18.38;;
75012;SDS011;63567;49.956;20.130;2023-05-23T13:25:02;15.53;;;14.63;;
75012;SDS011;63567;49.956;20.130;2023-05-23T13:27:28;15.40;;;14.68;;
75012;SDS011;63567;49.956;20.130;2023-05-23T13:29:53;14.03;;;13.27;;
75012;SDS011;63567;49.956;20.130;2023-05-23T13:32:18;15.40;;;14.60;;
75012;SDS011;63567;49.956;20.130;2023-05-23T13:34:44;14.93;;;14.13;;
75012;SDS011;63567;49.956;20.130;2023-05-23T13:37:09;28.53;;;27.27;;
75012;SDS011;63567;49.956;20.130;2023-05-23T13:39:34;14.07;;;13.27;;
75012;SDS011;63567;49.956;20.130;2023-05-23T13:41:59;17.17;;;16.37;;
75012;SDS011;63567;49.956;20.130;2023-05-23T13:44:25;27.40;;;26.30;;
75012;SDS011;63567;49.956;20.130;2023-05-23T13:46:50;14.57;;;13.83;;
75012;SDS011;63567;49.956;20.130;2023-05-23T13:49:15;13.30;;;12.57;;
75012;SDS011;63567;49.956;20.130;2023-05-23T13:51:40;11.33;;;10.63;;
75012;SDS011;63567;49.956;20.130;2023-05-23T13:54:07;14.07;;;13.27;;
75012;SDS011;63567;49.956;20.130;2023-05-23T13:56:32;10.88;;;10.18;;
75012;SDS011;63567;49.956;20.130;2023-05-23T13:58:58;18.80;;;17.80;;
75012;SDS011;63567;49.956;20.130;2023-05-23T14:01:23;11.30;;;10.50;;
75012;SDS011;63567;49.956;20.130;2023-05-23T14:03:48;9.57;;;8.97;;
75012;SDS011;63567;49.956;20.130;2023-05-23T14:06:13;10.20;;;9.57;;
75012;SDS011;63567;49.956;20.130;2023-05-23T14:08:38;13.40;;;12.70;;
75012;SDS011;63567;49.956;20.130;2023-05-23T14:11:04;8.50;;;7.88;;
75012;SDS011;63567;49.956;20.130;2023-05-23T14:13:29;9.73;;;9.13;;
75012;SDS011;63567;49.956;20.130;2023-05-23T14:15:55;17.70;;;16.70;;
75012;SDS011;63567;49.956;20.130;2023-05-23T14:18:20;9.73;;;9.03;;
75012;SDS011;63567;49.956;20.130;2023-05-23T14:20:45;10.00;;;9.30;;
75012;SDS011;63567;49.956;20.130;2023-05-23T14:23:10;9.17;;;8.47;;
75012;SDS011;63567;49.956;20.130;2023-05-23T14:25:35;10.37;;;8.87;;
75012;SDS011;63567;49.956;20.130;2023-05-23T14:28:01;8.13;;;7.37;;
75012;SDS011;63567;49.956;20.130;2023-05-23T14:30:26;9.65;;;8.77;;
75012;SDS011;63567;49.956;20.130;2023-05-23T14:32:52;9.63;;;9.03;;
75012;SDS011;63567;49.956;20.130;2023-05-23T14:35:18;10.20;;;9.45;;
75012;SDS011;63567;49.956;20.130;2023-05-23T14:37:43;11.30;;;9.70;;
75012;SDS011;63567;49.956;20.130;2023-05-23T14:40:10;8.23;;;7.53;;
75012;SDS011;63567;49.956;20.130;2023-05-23T14:42:36;16.20;;;15.30;;
75012;SDS011;63567;49.956;20.130;2023-05-23T14:45:01;8.00;;;7.27;;
75012;SDS011;63567;49.956;20.130;2023-05-23T14:47:27;8.40;;;7.70;;